Time;durP1;ratioP1;P1;durP2;ratioP2;P2;SDS_P1;SDS_P2;PMS_P1;PMS_P2;Temp;Humidity;BMP_temperature;BMP_pressure;BME280_temperature;BME280_humidity;BME280_pressure;Samples;Min_cycle;Max_cycle;Signal;HPM_P1;HPM_P2
2022/09/14 00:00:44;;;;;;;3.05;0.20;;;;;;;14.60;47.76;100787.03;4981102;28;20049;-71
2022/09/14 00:03:09;;;;;;;3.88;0.30;;;;;;;14.52;47.82;100783.06;4982138;28;20170;-68
2022/09/14 00:05:35;;;;;;;1.17;0.10;;;;;;;14.26;48.26;100771.38;4987132;28;20041;-68
2022/09/14 00:08:01;;;;;;;5.25;0.30;;;;;;;14.07;48.66;100775.97;4973515;28;20186;-69
2022/09/14 00:10:26;;;;;;;2.10;0.38;;;;;;;13.98;48.83;100781.75;4973794;28;20121;-70
2022/09/14 00:12:54;;;;;;;1.55;0.30;;;;;;;13.82;49.02;100776.50;4973910;28;20042;-68
2022/09/14 00:15:22;;;;;;;2.63;0.43;;;;;;;13.68;49.56;100769.41;4974226;28;20039;-69
2022/09/14 00:17:48;;;;;;;1.92;0.20;;;;;;;13.57;50.02;100777.00;4970143;28;20053;-68
2022/09/14 00:20:13;;;;;;;2.50;0.20;;;;;;;13.58;50.21;100773.44;4971441;28;20037;-68
2022/09/14 00:22:41;;;;;;;2.63;0.30;;;;;;;13.64;49.94;100776.56;4966526;28;20496;-68
2022/09/14 00:25:07;;;;;;;4.28;0.82;;;;;;;13.69;49.92;100769.28;4972417;28;20031;-68
2022/09/14 00:27:32;;;;;;;1.75;0.20;;;;;;;13.72;49.80;100765.66;4973734;28;20553;-68
2022/09/14 00:29:58;;;;;;;4.85;0.20;;;;;;;13.67;49.76;100767.69;4986804;28;20764;-68
2022/09/14 00:32:23;;;;;;;2.40;0.30;;;;;;;13.49;50.01;100764.25;4973860;28;20062;-69
2022/09/14 00:34:49;;;;;;;3.10;0.20;;;;;;;13.35;50.00;100759.75;4975272;28;20042;-69
2022/09/14 00:37:14;;;;;;;3.25;0.28;;;;;;;13.26;50.18;100770.75;4973141;28;20224;-69
2022/09/14 00:39:40;;;;;;;2.95;0.40;;;;;;;13.18;50.37;100770.28;4975192;28;20166;-70
2022/09/14 00:42:05;;;;;;;1.75;0.20;;;;;;;13.04;50.60;100763.97;4985669;28;20077;-68
2022/09/14 00:44:30;;;;;;;1.38;0.20;;;;;;;12.91;51.20;100762.91;4973540;28;20035;-68
2022/09/14 00:47:01;;;;;;;3.70;0.55;;;;;;;12.87;51.05;100766.63;4972488;28;20051;-68
2022/09/14 00:49:33;;;;;;;4.32;0.40;;;;;;;12.81;51.19;100759.94;4980819;28;20700;-68
2022/09/14 00:52:09;;;;;;;1.55;0.20;;;;;;;12.66;51.25;100764.13;4989124;28;20593;-68
2022/09/14 00:54:57;;;;;;;1.50;0.13;;;;;;;12.60;51.68;100764.47;4977917;28;20133;-67
2022/09/14 00:57:25;;;;;;;1.95;0.32;;;;;;;12.58;51.79;100763.69;4980136;28;20054;-67
2022/09/14 00:59:52;;;;;;;2.05;0.40;;;;;;;12.56;52.11;100759.44;4985682;28;20074;-69
2022/09/14 01:02:20;;;;;;;2.85;0.20;;;;;;;12.55;52.21;100763.84;4974675;28;20042;-67
2022/09/14 01:04:47;;;;;;;3.00;0.45;;;;;;;12.61;52.29;100763.53;4976901;28;20038;-67
2022/09/14 01:07:42;;;;;;;3.25;0.35;;;;;;;12.68;52.24;100761.44;4987870;28;20053;-71
2022/09/14 01:10:35;;;;;;;6.85;0.38;;;;;;;12.82;51.96;100760.78;4976163;28;20301;-72
2022/09/14 01:13:04;;;;;;;1.15;0.40;;;;;;;12.94;52.15;100757.53;4974767;28;20093;-72
2022/09/14 01:15:46;;;;;;;3.38;0.40;;;;;;;12.85;52.29;100750.16;4973894;28;20390;-73
2022/09/14 01:18:22;;;;;;;2.85;0.68;;;;;;;12.90;52.17;100754.22;4971706;28;20118;-71
2022/09/14 01:21:05;;;;;;;4.65;0.40;;;;;;;12.98;52.02;100753.84;4975372;28;20030;-72
2022/09/14 01:23:33;;;;;;;7.32;1.00;;;;;;;12.99;51.76;100752.88;4976002;28;20406;-72
2022/09/14 01:26:20;;;;;;;2.72;0.60;;;;;;;12.90;51.67;100745.50;4972984;28;20096;-73
2022/09/14 01:28:48;;;;;;;4.13;0.40;;;;;;;13.08;51.78;100749.78;4975302;28;20193;-67
2022/09/14 01:31:40;;;;;;;3.00;0.47;;;;;;;13.16;51.34;100745.91;4976078;28;20031;-67
2022/09/14 01:34:12;;;;;;;4.47;0.30;;;;;;;13.17;51.37;100743.19;4978375;28;20042;-68
2022/09/14 01:36:41;;;;;;;3.20;0.30;;;;;;;13.08;51.03;100739.28;4977376;28;20034;-67
2022/09/14 01:39:09;;;;;;;1.63;0.20;;;;;;;13.03;51.29;100741.31;4989035;28;20106;-69
2022/09/14 01:41:35;;;;;;;3.33;0.63;;;;;;;13.13;51.15;100738.19;4974540;28;20965;-68
2022/09/14 01:44:08;;;;;;;6.68;0.50;;;;;;;13.10;51.13;100736.59;4972437;28;20161;-68
2022/09/14 01:46:42;;;;;;;1.60;0.32;;;;;;;13.05;50.99;100734.22;4976846;28;20030;-68
2022/09/14 01:49:14;;;;;;;2.22;0.45;;;;;;;13.11;51.24;100733.03;4975442;28;20057;-66
2022/09/14 01:51:53;;;;;;;6.00;0.40;;;;;;;13.20;50.96;100729.06;4967307;28;20500;-68
2022/09/14 01:54:32;;;;;;;3.33;0.40;;;;;;;13.19;50.69;100730.00;4986993;28;20030;-67
2022/09/14 01:57:12;;;;;;;3.33;0.47;;;;;;;13.19;51.09;100730.84;4974758;28;20046;-70
2022/09/14 01:59:46;;;;;;;3.10;0.20;;;;;;;13.36;50.87;100729.09;4991383;28;20407;-67
2022/09/14 02:02:24;;;;;;;3.15;0.60;;;;;;;13.29;50.36;100725.94;4973167;28;20034;-68
2022/09/14 02:05:00;;;;;;;5.03;1.00;;;;;;;13.27;50.92;100723.41;4972661;28;20038;-68
2022/09/14 02:07:25;;;;;;;4.10;0.43;;;;;;;13.05;51.03;100715.84;4973938;28;20553;-69
2022/09/14 02:09:52;;;;;;;4.03;0.40;;;;;;;13.06;51.26;100708.81;4977014;28;20031;-67
2022/09/14 02:12:18;;;;;;;5.05;0.57;;;;;;;13.13;51.15;100714.59;4973609;28;20045;-67
2022/09/14 02:14:45;;;;;;;3.28;0.22;;;;;;;13.11;50.96;100712.88;4974141;28;20042;-68
2022/09/14 02:17:12;;;;;;;2.80;0.20;;;;;;;13.11;51.34;100710.25;4972480;28;20057;-68
2022/09/14 02:19:47;;;;;;;2.17;0.25;;;;;;;13.21;51.28;100712.41;4975851;28;20030;-67
2022/09/14 02:22:12;;;;;;;3.60;0.38;;;;;;;13.33;50.91;100711.72;4958104;28;20039;-67
2022/09/14 02:24:38;;;;;;;1.33;0.10;;;;;;;13.35;51.13;100716.91;4977059;28;20038;-67
2022/09/14 02:27:06;;;;;;;5.88;0.60;;;;;;;13.32;51.10;100720.56;5004708;28;20285;-67
2022/09/14 02:29:32;;;;;;;4.13;0.22;;;;;;;13.31;51.00;100718.84;4976379;28;20038;-71
2022/09/14 02:32:14;;;;;;;8.40;0.38;;;;;;;13.20;51.22;100716.78;4972817;28;20046;-72
2022/09/14 02:34:45;;;;;;;3.40;1.10;;;;;;;13.10;51.30;100715.59;4978071;28;20050;-72
2022/09/14 02:37:49;;;;;;;0.70;0.10;;;;;;;13.02;51.70;100712.53;4971790;28;20253;-71
2022/09/14 02:40:27;;;;;;;3.90;0.30;;;;;;;13.07;51.55;100700.88;4972096;28;20558;-71
2022/09/14 02:43:19;;;;;;;2.72;0.55;;;;;;;13.19;51.44;100698.50;4985402;28;20053;-71
2022/09/14 02:46:13;;;;;;;3.38;0.90;;;;;;;13.07;51.59;100700.88;4989442;28;20116;-69
2022/09/14 02:48:51;;;;;;;1.73;0.47;;;;;;;13.01;51.37;100703.81;4955361;28;20063;-68
2022/09/14 02:51:54;;;;;;;1.17;0.20;;;;;;;12.98;51.91;100701.38;4955022;28;20034;-69
2022/09/14 02:54:26;;;;;;;0.80;0.22;;;;;;;12.87;51.77;100701.06;4973594;28;20162;-67
2022/09/14 02:56:52;;;;;;;2.08;0.30;;;;;;;12.87;51.88;100699.28;4973841;28;20076;-68
2022/09/14 02:59:17;;;;;;;4.70;1.10;;;;;;;12.80;52.02;100699.69;4975089;28;20505;-69
2022/09/14 03:01:43;;;;;;;2.70;0.30;;;;;;;12.77;52.08;100697.22;4964234;28;20037;-71
2022/09/14 03:04:08;;;;;;;4.65;0.30;;;;;;;12.78;52.34;100698.91;4947636;28;20559;-71
2022/09/14 03:06:34;;;;;;;3.55;0.30;;;;;;;12.73;52.28;100700.94;4954338;28;20161;-75
2022/09/14 03:09:02;;;;;;;4.22;0.20;;;;;;;12.68;52.44;100693.28;4962968;28;20031;-76
2022/09/14 03:11:28;;;;;;;2.38;0.30;;;;;;;12.56;52.42;100694.75;4971490;28;20045;-75
2022/09/14 03:13:53;;;;;;;0.70;0.10;;;;;;;12.43;52.58;100693.69;5009123;28;20673;-75
2022/09/14 03:16:19;;;;;;;7.00;0.38;;;;;;;12.33;52.90;100692.44;4992713;28;20046;-75
2022/09/14 03:18:45;;;;;;;4.97;0.25;;;;;;;12.21;53.07;100684.28;5010425;28;20112;-69
2022/09/14 03:21:12;;;;;;;3.90;0.30;;;;;;;12.21;53.14;100679.03;4975096;28;20034;-69
2022/09/14 03:23:56;;;;;;;1.88;0.30;;;;;;;12.22;53.00;100677.25;4971334;28;20034;-70
2022/09/14 03:26:35;;;;;;;3.70;0.47;;;;;;;12.20;53.14;100676.47;4989054;28;20038;-69
2022/09/14 03:29:01;;;;;;;4.60;0.30;;;;;;;12.22;53.15;100670.28;4967843;28;20514;-69
2022/09/14 03:31:27;;;;;;;5.68;0.43;;;;;;;12.28;52.80;100669.94;4978922;28;20638;-69
2022/09/14 03:33:58;;;;;;;2.42;0.60;;;;;;;12.10;53.00;100663.00;4991855;28;20098;-70
2022/09/14 03:36:25;;;;;;;5.45;0.55;;;;;;;12.16;53.30;100656.63;4974938;28;20505;-69
2022/09/14 03:38:52;;;;;;;2.25;0.20;;;;;;;12.23;52.98;100651.00;4989076;28;20049;-71
2022/09/14 03:41:19;;;;;;;3.38;0.30;;;;;;;12.29;52.97;100661.16;4982274;28;20120;-70
2022/09/14 03:43:45;;;;;;;1.05;0.30;;;;;;;12.38;52.85;100658.97;4976178;28;20466;-68
2022/09/14 03:46:21;;;;;;;7.40;0.95;;;;;;;12.44;52.73;100650.81;4972051;28;20036;-68
2022/09/14 03:48:47;;;;;;;1.42;0.30;;;;;;;12.56;52.80;100654.56;4978955;28;20054;-69
2022/09/14 03:51:14;;;;;;;1.63;0.30;;;;;;;12.61;52.69;100656.03;4984193;28;20056;-72
2022/09/14 03:53:40;;;;;;;1.50;0.30;;;;;;;12.60;52.51;100659.59;4973754;28;20047;-71
2022/09/14 03:56:16;;;;;;;2.15;0.50;;;;;;;12.62;52.38;100656.88;4982382;28;20027;-71
2022/09/14 03:58:43;;;;;;;1.15;0.68;;;;;;;12.61;52.76;100656.03;4983183;28;20579;-71
2022/09/14 04:01:13;;;;;;;1.50;0.40;;;;;;;12.68;52.34;100657.41;4971013;28;20030;-71
2022/09/14 04:03:39;;;;;;;2.50;0.45;;;;;;;12.80;52.12;100655.09;4967444;28;20092;-68
2022/09/14 04:06:05;;;;;;;4.57;0.38;;;;;;;12.33;52.37;100659.22;4975844;28;20038;-66
2022/09/14 04:08:38;;;;;;;5.35;0.20;;;;;;;12.58;52.40;100650.97;4972668;28;20042;-68
2022/09/14 04:11:23;;;;;;;3.58;1.38;;;;;;;12.67;52.38;100647.84;4972346;28;20038;-68
2022/09/14 04:13:50;;;;;;;0.95;0.32;;;;;;;12.68;51.83;100651.31;4975050;28;20108;-69
2022/09/14 04:16:17;;;;;;;6.05;1.45;;;;;;;12.57;51.80;100659.75;4971483;28;20030;-69
2022/09/14 04:18:43;;;;;;;1.38;0.22;;;;;;;12.68;52.34;100649.53;4990370;28;20611;-69
2022/09/14 04:21:13;;;;;;;1.60;0.68;;;;;;;12.48;52.30;100644.50;4983576;28;20036;-70
2022/09/14 04:23:38;;;;;;;2.47;0.25;;;;;;;12.61;52.00;100640.31;4987016;28;20034;-70
2022/09/14 04:26:12;;;;;;;3.70;0.30;;;;;;;12.66;51.57;100643.53;4991175;28;20038;-69
2022/09/14 04:28:39;;;;;;;4.50;0.45;;;;;;;12.54;51.99;100648.59;4986114;28;20035;-69
2022/09/14 04:31:05;;;;;;;3.97;0.70;;;;;;;12.48;52.18;100653.19;4973459;28;20034;-69
2022/09/14 04:33:34;;;;;;;4.10;0.30;;;;;;;12.57;52.17;100656.28;4976997;28;20039;-69
2022/09/14 04:36:03;;;;;;;0.88;0.28;;;;;;;12.56;52.25;100647.56;4977223;28;20309;-69
2022/09/14 04:38:29;;;;;;;4.03;0.40;;;;;;;12.54;52.43;100643.34;4962470;28;20043;-70
2022/09/14 04:40:55;;;;;;;8.32;0.73;;;;;;;12.33;52.49;100645.28;4956712;28;20404;-71
2022/09/14 04:43:21;;;;;;;1.88;0.20;;;;;;;12.35;52.72;100643.44;4956154;28;20054;-71
2022/09/14 04:45:47;;;;;;;1.02;0.30;;;;;;;12.34;52.43;100647.00;4958446;28;20090;-71
2022/09/14 04:48:13;;;;;;;3.90;0.98;;;;;;;12.32;52.42;100640.97;4978192;28;20064;-69
2022/09/14 04:50:38;;;;;;;5.35;0.98;;;;;;;12.26;52.33;100639.50;4969921;28;20124;-68
2022/09/14 04:53:04;;;;;;;2.17;1.05;;;;;;;12.25;52.60;100633.41;5009308;28;20050;-67
2022/09/14 04:55:29;;;;;;;1.08;0.32;;;;;;;12.32;52.61;100635.72;4972564;28;20036;-68
2022/09/14 04:57:55;;;;;;;4.20;0.40;;;;;;;12.36;52.55;100637.28;4979293;28;20050;-68
2022/09/14 05:00:23;;;;;;;1.05;0.82;;;;;;;12.35;52.33;100632.94;4986357;28;20117;-68
2022/09/14 05:02:48;;;;;;;1.25;0.50;;;;;;;12.39;52.16;100634.50;4975010;28;20093;-68
2022/09/14 05:05:14;;;;;;;5.45;0.82;;;;;;;12.38;52.18;100635.41;4975326;28;20022;-69
2022/09/14 05:07:39;;;;;;;4.50;0.40;;;;;;;12.40;52.37;100634.41;4984154;28;20553;-69
2022/09/14 05:10:07;;;;;;;0.88;0.25;;;;;;;12.44;52.41;100638.56;4975778;28;20111;-69
2022/09/14 05:12:33;;;;;;;4.15;0.70;;;;;;;12.47;52.05;100638.41;4964743;28;20403;-69
2022/09/14 05:14:58;;;;;;;2.47;0.40;;;;;;;12.52;52.38;100639.94;4958371;28;20042;-68
2022/09/14 05:17:24;;;;;;;2.55;0.40;;;;;;;12.39;51.95;100642.34;4966680;28;20112;-69
2022/09/14 05:19:49;;;;;;;4.57;0.38;;;;;;;12.36;52.46;100645.97;4992460;28;20038;-69
2022/09/14 05:22:15;;;;;;;2.88;0.47;;;;;;;12.35;52.32;100636.41;4973806;28;20141;-68
2022/09/14 05:24:42;;;;;;;3.55;0.50;;;;;;;12.26;52.13;100639.50;4977085;28;20027;-68
2022/09/14 05:27:08;;;;;;;3.55;0.35;;;;;;;12.19;52.38;100628.47;4965294;28;20678;-70
2022/09/14 05:29:33;;;;;;;1.23;0.43;;;;;;;12.13;52.85;100631.41;4975459;28;20388;-68
2022/09/14 05:31:59;;;;;;;1.80;0.30;;;;;;;12.14;52.81;100635.75;4976753;28;20050;-68
2022/09/14 05:34:24;;;;;;;3.88;0.43;;;;;;;12.29;52.43;100626.25;4966965;28;20072;-67
2022/09/14 05:36:50;;;;;;;5.68;0.73;;;;;;;12.43;52.43;100628.16;4970580;28;20058;-68
2022/09/14 05:39:16;;;;;;;2.55;0.50;;;;;;;12.62;52.17;100628.03;4975680;28;20046;-70
2022/09/14 05:41:41;;;;;;;2.40;0.30;;;;;;;12.63;51.72;100638.44;4985863;28;20189;-69
2022/09/14 05:44:07;;;;;;;1.05;0.32;;;;;;;12.79;51.47;100635.06;4985742;28;20495;-70
2022/09/14 05:46:33;;;;;;;2.35;0.30;;;;;;;12.89;51.49;100628.38;4963657;28;20107;-72
2022/09/14 05:48:58;;;;;;;1.85;0.30;;;;;;;12.89;51.29;100628.38;4986453;28;20217;-72
2022/09/14 05:51:26;;;;;;;5.20;0.40;;;;;;;12.88;51.36;100629.31;4974560;28;20049;-70
2022/09/14 05:53:54;;;;;;;2.70;0.43;;;;;;;12.48;51.02;100634.84;4973333;28;20035;-72
2022/09/14 05:56:21;;;;;;;4.95;0.25;;;;;;;12.49;51.89;100633.06;4970992;28;20042;-72
2022/09/14 05:59:05;;;;;;;3.80;0.40;;;;;;;12.74;50.98;100629.22;4969117;28;20057;-71
2022/09/14 06:01:31;;;;;;;6.85;0.30;;;;;;;12.73;51.07;100633.59;4964301;28;20038;-70
2022/09/14 06:03:59;;;;;;;1.73;0.60;;;;;;;12.99;50.96;100624.34;4986615;28;20118;-71
2022/09/14 06:06:25;;;;;;;1.65;0.40;;;;;;;13.06;50.43;100630.94;4968521;28;20081;-70
2022/09/14 06:08:52;;;;;;;2.38;0.38;;;;;;;13.19;50.47;100631.13;4979848;28;20043;-70
2022/09/14 06:11:44;;;;;;;2.05;0.28;;;;;;;13.18;50.36;100628.56;4983792;28;20026;-73
2022/09/14 06:14:10;;;;;;;2.25;0.25;;;;;;;13.24;50.53;100639.59;4966742;28;20397;-72
2022/09/14 06:16:35;;;;;;;3.28;0.35;;;;;;;13.20;50.04;100618.84;4980105;28;20118;-70
2022/09/14 06:19:02;;;;;;;3.35;0.30;;;;;;;13.28;50.33;100633.25;4968787;28;20043;-71
2022/09/14 06:21:37;;;;;;;1.95;0.47;;;;;;;13.11;49.68;100618.41;4985610;28;20030;-70
2022/09/14 06:24:02;;;;;;;8.32;0.50;;;;;;;13.14;50.05;100624.41;4966697;28;20727;-70
2022/09/14 06:26:28;;;;;;;1.98;0.20;;;;;;;13.21;49.91;100615.31;4967786;28;21333;-72
2022/09/14 06:28:54;;;;;;;3.03;0.20;;;;;;;13.29;50.55;100631.47;4966841;28;20041;-70
2022/09/14 06:31:21;;;;;;;3.47;0.20;;;;;;;13.37;49.65;100617.91;4961437;28;20038;-69
2022/09/14 06:33:48;;;;;;;6.75;0.63;;;;;;;13.47;49.88;100619.94;4966938;28;20432;-71
2022/09/14 06:36:18;;;;;;;4.78;0.60;;;;;;;13.55;49.24;100618.66;4966691;28;20035;-69
2022/09/14 06:38:45;;;;;;;2.35;0.20;;;;;;;13.77;49.56;100615.69;4977645;28;20054;-70
2022/09/14 06:41:13;;;;;;;6.05;0.73;;;;;;;13.60;49.34;100619.28;4976792;28;20346;-71
2022/09/14 06:43:40;;;;;;;6.40;0.43;;;;;;;13.63;49.02;100629.59;4976442;28;20709;-70
2022/09/14 06:46:08;;;;;;;4.63;0.40;;;;;;;13.71;49.54;100619.50;4962554;28;20435;-70
2022/09/14 06:48:37;;;;;;;3.05;0.68;;;;;;;13.94;49.67;100619.03;4967945;28;20108;-70
2022/09/14 06:51:20;;;;;;;3.53;0.45;;;;;;;14.01;48.75;100618.66;4983663;28;20057;-70
2022/09/14 06:53:47;;;;;;;2.78;0.65;;;;;;;14.00;48.77;100616.97;4960445;28;20085;-70
2022/09/14 06:56:13;;;;;;;3.17;0.43;;;;;;;14.18;48.91;100615.03;4968090;28;20169;-69
2022/09/14 06:58:39;;;;;;;1.55;0.20;;;;;;;14.14;48.53;100614.38;4981280;28;20066;-74
2022/09/14 07:01:08;;;;;;;5.07;0.30;;;;;;;14.03;48.44;100620.28;4978190;28;20160;-69
2022/09/14 07:03:35;;;;;;;2.15;0.22;;;;;;;14.24;48.76;100625.22;4967502;28;20097;-69
2022/09/14 07:06:11;;;;;;;1.45;0.47;;;;;;;14.35;48.71;100639.41;4968743;28;20062;-71
2022/09/14 07:08:38;;;;;;;5.65;0.20;;;;;;;14.38;48.04;100633.09;4965686;28;20049;-70
2022/09/14 07:11:05;;;;;;;2.13;0.40;;;;;;;14.19;49.18;100630.75;4969322;28;20198;-70
2022/09/14 07:13:31;;;;;;;1.58;0.20;;;;;;;14.18;49.01;100631.66;4983294;28;20097;-69
2022/09/14 07:15:57;;;;;;;2.25;0.38;;;;;;;14.34;49.68;100632.47;4978433;28;20041;-69
2022/09/14 07:18:27;;;;;;;4.45;0.30;;;;;;;14.52;49.05;100633.16;4968284;28;20584;-70
2022/09/14 07:20:53;;;;;;;2.55;0.20;;;;;;;14.79;49.12;100632.41;4972184;28;20121;-70
2022/09/14 07:23:19;;;;;;;8.90;0.50;;;;;;;14.95;48.04;100627.06;4970608;28;20046;-70
2022/09/14 07:25:45;;;;;;;3.05;0.32;;;;;;;14.95;47.81;100637.56;4987342;28;20256;-69
2022/09/14 07:28:10;;;;;;;3.47;0.70;;;;;;;15.16;47.79;100630.09;4974072;28;20046;-68
2022/09/14 07:30:37;;;;;;;1.30;0.28;;;;;;;15.40;47.14;100633.00;4966348;28;20034;-69
2022/09/14 07:33:05;;;;;;;3.45;0.30;;;;;;;15.26;46.46;100626.00;4974018;28;20201;-69
2022/09/14 07:35:32;;;;;;;4.65;0.25;;;;;;;15.46;47.59;100621.22;4973623;28;20034;-69
2022/09/14 07:37:57;;;;;;;3.03;0.85;;;;;;;16.06;46.43;100631.31;4974712;28;20054;-68
2022/09/14 07:40:23;;;;;;;2.53;0.32;;;;;;;17.40;43.14;100624.66;4972871;28;20073;-68
2022/09/14 07:42:53;;;;;;;3.70;0.40;;;;;;;19.12;39.46;100627.47;4971074;28;20518;-69
2022/09/14 07:45:19;;;;;;;1.98;0.32;;;;;;;18.79;39.50;100625.69;4974288;28;20931;-69
2022/09/14 07:47:44;;;;;;;2.00;0.20;;;;;;;18.19;39.35;100632.97;4966809;28;20495;-70
2022/09/14 07:50:10;;;;;;;6.32;0.38;;;;;;;18.43;40.30;100628.44;4964857;28;20037;-70
2022/09/14 07:52:36;;;;;;;5.00;0.20;;;;;;;18.47;39.82;100623.72;4982299;28;20042;-70
2022/09/14 07:55:02;;;;;;;3.40;0.50;;;;;;;18.78;39.28;100629.28;4968071;28;20041;-69
2022/09/14 07:57:27;;;;;;;4.07;0.47;;;;;;;18.25;41.36;100632.47;4979217;28;20072;-69
2022/09/14 07:59:53;;;;;;;2.67;0.68;;;;;;;18.64;41.19;100625.06;4965876;28;20503;-68
2022/09/14 08:02:20;;;;;;;3.17;0.80;;;;;;;19.03;40.20;100622.91;4968248;28;20490;-69
2022/09/14 08:04:46;;;;;;;3.60;0.40;;;;;;;20.29;37.45;100625.84;4969399;28;20039;-69
2022/09/14 08:07:13;;;;;;;6.20;0.68;;;;;;;21.02;36.65;100626.59;4968602;28;20558;-72
2022/09/14 08:09:38;;;;;;;3.30;0.43;;;;;;;22.52;34.02;100633.31;4971603;28;20037;-68
2022/09/14 08:12:04;;;;;;;2.35;0.20;;;;;;;23.17;31.81;100625.28;4979682;28;20069;-67
2022/09/14 08:14:30;;;;;;;4.30;0.20;;;;;;;22.87;31.18;100621.09;4973124;28;20480;-65
2022/09/14 08:16:58;;;;;;;4.28;0.40;;;;;;;21.49;32.52;100615.34;4972230;28;20054;-65
2022/09/14 08:19:23;;;;;;;3.95;0.43;;;;;;;20.12;35.11;100629.88;4972251;28;20045;-65
2022/09/14 08:21:49;;;;;;;7.80;0.50;;;;;;;19.54;36.84;100616.16;4971245;28;21057;-73
2022/09/14 08:24:19;;;;;;;3.85;0.32;;;;;;;19.42;38.19;100607.41;4969211;28;20038;-72
2022/09/14 08:26:46;;;;;;;8.80;0.65;;;;;;;20.78;36.59;100608.31;4961886;28;20046;-68
2022/09/14 08:29:13;;;;;;;3.55;0.28;;;;;;;20.98;33.87;100603.94;4969723;28;20109;-65
2022/09/14 08:31:39;;;;;;;4.13;0.40;;;;;;;21.00;33.80;100594.00;4971668;28;20463;-68
2022/09/14 08:34:05;;;;;;;8.13;0.32;;;;;;;21.28;32.39;100597.69;4970610;28;20035;-69
2022/09/14 08:36:35;;;;;;;2.28;0.20;;;;;;;21.50;32.24;100593.13;4970720;28;20050;-68
2022/09/14 08:39:01;;;;;;;3.28;0.30;;;;;;;21.65;32.84;100586.41;4996862;28;20034;-68
2022/09/14 08:41:34;;;;;;;2.80;0.57;;;;;;;22.92;31.82;100583.38;4983950;28;20041;-68
2022/09/14 08:44:08;;;;;;;5.53;0.43;;;;;;;23.36;29.19;100584.34;4984665;28;20058;-68
2022/09/14 08:46:38;;;;;;;4.65;0.50;;;;;;;23.10;29.85;100583.41;4968617;28;20038;-69
2022/09/14 08:49:12;;;;;;;1.30;0.22;;;;;;;23.78;28.85;100583.69;4968139;28;20100;-69
2022/09/14 08:51:38;;;;;;;5.00;0.35;;;;;;;22.86;28.88;100582.13;4964075;28;20062;-68
2022/09/14 08:54:03;;;;;;;3.00;0.20;;;;;;;21.62;31.03;100584.00;4980201;28;20061;-69
2022/09/14 08:56:35;;;;;;;6.35;0.20;;;;;;;20.46;32.92;100593.38;4965550;28;20045;-68
2022/09/14 08:59:10;;;;;;;5.57;0.22;;;;;;;19.56;34.91;100588.59;4971209;28;20054;-68
2022/09/14 09:02:18;;;;;;;3.65;0.55;;;;;;;19.17;35.24;100590.03;4970300;28;20519;-69
2022/09/14 09:05:02;;;;;;;4.13;0.32;;;;;;;18.65;36.47;100592.34;4986893;28;20917;-70
2022/09/14 09:07:54;;;;;;;3.83;0.52;;;;;;;18.13;36.09;100591.06;4969279;28;20060;-69
2022/09/14 09:10:19;;;;;;;3.85;0.40;;;;;;;17.95;36.46;100602.09;4963194;28;20050;-69
2022/09/14 09:12:52;;;;;;;8.45;0.68;;;;;;;17.57;37.03;100600.50;4973355;28;20065;-70
2022/09/14 09:15:28;;;;;;;2.97;0.30;;;;;;;17.94;35.71;100592.47;4975496;28;20038;-70
2022/09/14 09:18:08;;;;;;;5.15;0.38;;;;;;;17.65;36.22;100592.88;4975075;28;20133;-67
2022/09/14 09:20:42;;;;;;;3.63;0.30;;;;;;;17.86;35.30;100600.16;4973286;28;20035;-69
2022/09/14 09:23:14;;;;;;;7.30;0.40;;;;;;;17.91;35.70;100597.16;4977145;28;20138;-70
2022/09/14 09:25:45;;;;;;;5.60;0.40;;;;;;;17.51;36.65;100600.13;4989301;28;20904;-72
2022/09/14 09:28:13;;;;;;;5.25;0.75;;;;;;;17.61;36.45;100591.41;4976812;28;20046;-70
2022/09/14 09:30:40;;;;;;;2.55;0.32;;;;;;;17.70;36.16;100592.53;4992377;28;20038;-70
2022/09/14 09:33:11;;;;;;;6.03;0.60;;;;;;;17.96;35.55;100587.94;4974718;28;20046;-70
2022/09/14 09:35:55;;;;;;;4.18;0.30;;;;;;;17.84;36.09;100586.19;4992323;28;20048;-71
2022/09/14 09:38:29;;;;;;;5.70;0.40;;;;;;;18.47;35.33;100595.50;4992623;28;20357;-72
2022/09/14 09:41:13;;;;;;;8.23;0.50;;;;;;;18.81;34.28;100592.81;4969732;28;20049;-69
2022/09/14 09:44:01;;;;;;;2.38;0.30;;;;;;;19.10;33.82;100584.38;4989223;28;20045;-68
2022/09/14 09:46:30;;;;;;;4.93;0.55;;;;;;;19.37;32.83;100577.78;4984402;28;20399;-68
2022/09/14 09:48:55;;;;;;;9.18;0.85;;;;;;;19.76;32.60;100581.63;4973443;28;20066;-68
2022/09/14 09:51:23;;;;;;;2.00;0.22;;;;;;;19.88;32.71;100583.25;4974439;28;20076;-69
2022/09/14 09:54:17;;;;;;;6.03;0.45;;;;;;;20.10;31.50;100584.94;4976901;28;20043;-69
2022/09/14 09:56:57;;;;;;;4.68;0.38;;;;;;;20.57;30.39;100578.31;4977428;28;20034;-67
2022/09/14 09:59:34;;;;;;;2.42;0.45;;;;;;;20.66;29.88;100582.81;4971959;28;20080;-68
2022/09/14 10:02:30;;;;;;;7.80;0.30;;;;;;;20.33;30.94;100582.97;4974490;28;20967;-68
2022/09/14 10:05:04;;;;;;;8.55;0.30;;;;;;;19.99;31.12;100579.66;4969196;28;20077;-68
2022/09/14 10:07:54;;;;;;;6.38;0.75;;;;;;;19.60;31.72;100581.22;4987925;28;20042;-68
2022/09/14 10:10:25;;;;;;;6.38;0.30;;;;;;;19.99;30.70;100573.53;4992203;28;20068;-69
2022/09/14 10:12:54;;;;;;;3.38;0.30;;;;;;;19.83;31.12;100581.94;4973414;28;20042;-69
2022/09/14 10:15:19;;;;;;;5.13;0.30;;;;;;;19.91;31.63;100574.19;4991286;28;20118;-69
2022/09/14 10:17:58;;;;;;;5.32;0.40;;;;;;;19.28;31.34;100580.22;4974708;28;20493;-68
2022/09/14 10:20:27;;;;;;;6.03;0.73;;;;;;;18.93;32.65;100574.31;4975969;28;20041;-69
2022/09/14 10:22:52;;;;;;;6.75;0.22;;;;;;;18.93;33.24;100585.72;4987297;28;20051;-68
2022/09/14 10:25:22;;;;;;;6.38;0.40;;;;;;;18.63;32.94;100578.38;4973564;28;20496;-68
2022/09/14 10:28:00;;;;;;;4.47;0.52;;;;;;;18.12;33.74;100584.09;4967177;28;20045;-68
2022/09/14 10:30:33;;;;;;;6.57;0.55;;;;;;;18.08;34.37;100577.38;4968209;28;20523;-68
2022/09/14 10:33:04;;;;;;;2.95;0.55;;;;;;;17.82;34.11;100575.72;4964360;28;20061;-67
2022/09/14 10:35:42;;;;;;;2.05;0.35;;;;;;;18.43;33.13;100585.22;4973553;28;20069;-69
2022/09/14 10:38:23;;;;;;;3.05;0.40;;;;;;;18.02;32.79;100574.22;4954215;28;20101;-70
2022/09/14 10:41:04;;;;;;;4.20;0.20;;;;;;;18.26;32.77;100568.03;4948082;28;20030;-68
2022/09/14 10:43:47;;;;;;;5.00;0.60;;;;;;;17.87;34.14;100570.09;4968415;28;20049;-68
2022/09/14 10:46:19;;;;;;;4.25;0.35;;;;;;;18.26;34.51;100560.94;4970111;28;20042;-68
2022/09/14 10:49:03;;;;;;;5.88;1.00;;;;;;;17.89;33.85;100556.75;4981402;28;20057;-69
2022/09/14 10:51:43;;;;;;;6.13;0.30;;;;;;;17.87;34.23;100564.81;4974085;28;20048;-68
2022/09/14 10:54:34;;;;;;;4.47;0.43;;;;;;;18.05;34.09;100559.91;4974751;28;20695;-68
2022/09/14 10:57:22;;;;;;;2.47;0.20;;;;;;;18.36;32.69;100561.06;4975134;28;20103;-68
2022/09/14 10:59:52;;;;;;;4.88;0.30;;;;;;;18.21;32.85;100567.56;4974027;28;20562;-68
2022/09/14 11:02:33;;;;;;;3.67;0.53;;;;;;;18.32;33.13;100558.78;4959915;28;20430;-70
2022/09/14 11:05:06;;;;;;;4.38;0.57;;;;;;;18.47;32.81;100561.09;4971498;28;20281;-69
2022/09/14 11:07:40;;;;;;;4.25;0.68;;;;;;;18.36;33.36;100560.22;4984588;28;20422;-68
2022/09/14 11:10:28;;;;;;;3.05;0.30;;;;;;;18.71;32.74;100565.38;4970924;28;20031;-68
2022/09/14 11:13:25;;;;;;;3.08;0.30;;;;;;;19.56;32.30;100558.59;4986667;28;20441;-68
2022/09/14 11:16:14;;;;;;;4.40;0.40;;;;;;;20.41;30.49;100546.97;4973811;28;20037;-68
2022/09/14 11:18:53;;;;;;;5.97;0.30;;;;;;;20.49;30.05;100544.50;4969869;28;20437;-68
2022/09/14 11:22:13;;;;;;;1.92;0.30;;;;;;;20.45;29.60;100543.06;4989160;28;20141;-69
2022/09/14 11:24:45;;;;;;;4.03;0.20;;;;;;;21.25;27.85;100539.50;4968397;28;20419;-69
2022/09/14 11:27:23;;;;;;;3.63;0.30;;;;;;;21.67;27.56;100544.53;4968278;28;20141;-69
2022/09/14 11:29:54;;;;;;;3.58;0.30;;;;;;;21.40;28.57;100545.25;4972607;28;20056;-69
2022/09/14 11:32:30;;;;;;;;;;;;;;;21.06;28.71;100537.66;4971291;28;20046;-68
2022/09/14 11:35:20;;;;;;;6.63;0.43;;;;;;;20.36;29.79;100547.38;4970404;28;19972;-70
2022/09/14 11:37:58;;;;;;;6.72;0.30;;;;;;;19.24;31.46;100543.50;4970734;28;20112;-69
2022/09/14 11:40:31;;;;;;;4.85;0.30;;;;;;;18.73;32.66;100546.75;4970083;28;20038;-69
2022/09/14 11:43:08;;;;;;;2.70;0.63;;;;;;;19.24;31.67;100547.00;4973753;28;20530;-69